地図

経路データ

SID SEASON NUMBER BASIN SUBBASIN NAME ISO_TIME NATURE LAT LON WMO_WIND WMO_PRES WMO_AGENCY TRACK_TYPE DIST2LAND LANDFALL IFLAG USA_AGENCY USA_ATCF_ID USA_LAT USA_LON USA_RECORD USA_STATUS USA_WIND USA_PRES USA_SSHS USA_R34_NE USA_R34_SE USA_R34_SW USA_R34_NW USA_R50_NE USA_R50_SE USA_R50_SW USA_R50_NW USA_R64_NE USA_R64_SE USA_R64_SW USA_R64_NW USA_POCI USA_ROCI USA_RMW USA_EYE TOKYO_LAT TOKYO_LON TOKYO_GRADE TOKYO_WIND TOKYO_PRES TOKYO_R50_DIR TOKYO_R50_LONG TOKYO_R50_SHORT TOKYO_R30_DIR TOKYO_R30_LONG TOKYO_R30_SHORT TOKYO_LAND CMA_LAT CMA_LON CMA_CAT CMA_WIND CMA_PRES HKO_LAT HKO_LON HKO_CAT HKO_WIND HKO_PRES NEWDELHI_LAT NEWDELHI_LON NEWDELHI_GRADE NEWDELHI_WIND NEWDELHI_PRES NEWDELHI_CI NEWDELHI_DP NEWDELHI_POCI REUNION_LAT REUNION_LON REUNION_TYPE REUNION_WIND REUNION_PRES REUNION_TNUM REUNION_CI REUNION_RMW REUNION_R34_NE REUNION_R34_SE REUNION_R34_SW REUNION_R34_NW REUNION_R50_NE REUNION_R50_SE REUNION_R50_SW REUNION_R50_NW REUNION_R64_NE REUNION_R64_SE REUNION_R64_SW REUNION_R64_NW BOM_LAT BOM_LON BOM_TYPE BOM_WIND BOM_PRES BOM_TNUM BOM_CI BOM_RMW BOM_R34_NE BOM_R34_SE BOM_R34_SW BOM_R34_NW BOM_R50_NE BOM_R50_SE BOM_R50_SW BOM_R50_NW BOM_R64_NE BOM_R64_SE BOM_R64_SW BOM_R64_NW BOM_ROCI BOM_POCI BOM_EYE BOM_POS_METHOD BOM_PRES_METHOD NADI_LAT NADI_LON NADI_CAT NADI_WIND NADI_PRES WELLINGTON_LAT WELLINGTON_LON WELLINGTON_WIND WELLINGTON_PRES DS824_LAT DS824_LON DS824_STAGE DS824_WIND DS824_PRES TD9636_LAT TD9636_LON TD9636_STAGE TD9636_WIND TD9636_PRES TD9635_LAT TD9635_LON TD9635_WIND TD9635_PRES TD9635_ROCI NEUMANN_LAT NEUMANN_LON NEUMANN_CLASS NEUMANN_WIND NEUMANN_PRES MLC_LAT MLC_LON MLC_CLASS MLC_WIND MLC_PRES USA_GUST BOM_GUST BOM_GUST_PER REUNION_GUST REUNION_GUST_PER USA_SEAHGT USA_SEARAD_NE USA_SEARAD_SE USA_SEARAD_SW USA_SEARAD_NW STORM_SPEED STORM_DIR
1967248N15340 1967 90 NA NA CHLOE 1967-09-05 00:00:00 TS 15.4000 -20.3000 30 hurdat_atl main 310 310 O_____________ hurdat_atl AL121967 15.4000 -20.3000 TD 30 -1 14 283
1967248N15340 1967 90 NA NA CHLOE 1967-09-05 03:00:00 TS 15.5604 -20.9997 main 389 389 P_____________ AL121967 15.5604 -20.9997 TD 30 -1 14 283
1967248N15340 1967 90 NA NA CHLOE 1967-09-05 06:00:00 TS 15.7000 -21.7000 30 hurdat_atl main 464 464 O_____________ hurdat_atl AL121967 15.7000 -21.7000 TD 30 -1 14 280
1967248N15340 1967 90 NA NA CHLOE 1967-09-05 09:00:00 TS 15.8073 -22.4001 main 540 540 P_____________ AL121967 15.8073 -22.4001 TD 30 -1 14 278
1967248N15340 1967 90 NA NA CHLOE 1967-09-05 12:00:00 TS 15.9000 -23.1000 30 1008 hurdat_atl main 615 615 O_____________ hurdat_atl AL121967 15.9000 -23.1000 TD 30 1008 -1 14 278
1967248N15340 1967 90 NA NA CHLOE 1967-09-05 15:00:00 TS 15.9922 -23.7927 main 691 691 P_____________ AL121967 15.9922 -23.7927 TD 30 1008 -1 14 278
1967248N15340 1967 90 NA NA CHLOE 1967-09-05 18:00:00 TS 16.1000 -24.5000 30 1008 hurdat_atl main 766 766 O_____________ hurdat_atl AL121967 16.1000 -24.5000 TD 30 1008 -1 14 280
1967248N15340 1967 90 NA NA CHLOE 1967-09-05 21:00:00 TS 16.2348 -25.2426 main 842 842 P_____________ AL121967 16.2348 -25.2426 TD 30 -1 15 282
1967248N15340 1967 90 NA NA CHLOE 1967-09-06 00:00:00 TS 16.4000 -26.0000 30 hurdat_atl main 930 930 O_____________ hurdat_atl AL121967 16.4000 -26.0000 TD 30 -1 15 284
1967248N15340 1967 90 NA NA CHLOE 1967-09-06 03:00:00 TS 16.5997 -26.7500 main 1008 1008 P_____________ AL121967 16.5997 -26.7500 TD 30 -1 15 286
1967248N15340 1967 90 NA NA CHLOE 1967-09-06 06:00:00 TS 16.8000 -27.5000 30 hurdat_atl main 1095 1095 O_____________ hurdat_atl AL121967 16.8000 -27.5000 TD 30 -1 15 284
1967248N15340 1967 90 NA NA CHLOE 1967-09-06 09:00:00 TS 16.9496 -28.2354 main 1171 1171 P_____________ AL121967 16.9496 -28.2354 TD 30 -1 15 282
1967248N15340 1967 90 NA NA CHLOE 1967-09-06 12:00:00 TS 17.1000 -29.0000 30 hurdat_atl main 1258 1258 O_____________ hurdat_atl AL121967 17.1000 -29.0000 TD 30 -1 16 282
1967248N15340 1967 90 NA NA CHLOE 1967-09-06 15:00:00 TS 17.2851 -29.8576 main 1357 1357 P_____________ AL121967 17.2851 -29.8576 TD 30 -1 17 284
1967248N15340 1967 90 NA NA CHLOE 1967-09-06 18:00:00 TS 17.5000 -30.7000 30 hurdat_atl main 1444 1444 O_____________ hurdat_atl AL121967 17.5000 -30.7000 TD 30 -1 16 287
1967248N15340 1967 90 NA NA CHLOE 1967-09-06 21:00:00 TS 17.7345 -31.4228 main 1521 1521 P_____________ AL121967 17.7345 -31.4228 TD 30 -1 14 291
1967248N15340 1967 90 NA NA CHLOE 1967-09-07 00:00:00 TS 18.0000 -32.1000 30 hurdat_atl main 1600 1600 O_____________ hurdat_atl AL121967 18.0000 -32.1000 TD 30 -1 14 293
1967248N15340 1967 90 NA NA CHLOE 1967-09-07 03:00:00 TS 18.2849 -32.8152 main 1667 1667 P_____________ AL121967 18.2849 -32.8152 TD 30 -1 15 294
1967248N15340 1967 90 NA NA CHLOE 1967-09-07 06:00:00 TS 18.6000 -33.5000 30 hurdat_atl main 1733 1733 O_____________ hurdat_atl AL121967 18.6000 -33.5000 TD 30 -1 14 298
1967248N15340 1967 90 NA NA CHLOE 1967-09-07 09:00:00 TS 18.9422 -34.1227 main 1789 1789 P_____________ AL121967 18.9422 -34.1227 TD 30 -1 13 302
1967248N15340 1967 90 NA NA CHLOE 1967-09-07 12:00:00 TS 19.3000 -34.7000 30 hurdat_atl main 1844 1844 O_____________ hurdat_atl AL121967 19.3000 -34.7000 TD 30 -1 13 303
1967248N15340 1967 90 NA NA CHLOE 1967-09-07 15:00:00 TS 19.6498 -35.2652 main 1902 1901 P_____________ AL121967 19.6498 -35.2652 TD 30 -1 13 304
1967248N15340 1967 90 NA NA CHLOE 1967-09-07 18:00:00 TS 20.0000 -35.8000 30 hurdat_atl main 1949 1949 O_____________ hurdat_atl AL121967 20.0000 -35.8000 TD 30 -1 12 304
1967248N15340 1967 90 NA NA CHLOE 1967-09-07 21:00:00 TS 20.3274 -36.3229 main 1998 1998 P_____________ AL121967 20.3274 -36.3229 TD 30 -1 12 307
1967248N15340 1967 90 NA NA CHLOE 1967-09-08 00:00:00 TS 20.7000 -36.8000 30 hurdat_atl main 2046 2046 O_____________ hurdat_atl AL121967 20.7000 -36.8000 TD 30 -1 12 315
1967248N15340 1967 90 NA NA CHLOE 1967-09-08 03:00:00 TS 21.1775 -37.2449 main 2085 2085 P_____________ AL121967 21.1775 -37.2449 TD 30 -1 13 323
1967248N15340 1967 90 NA NA CHLOE 1967-09-08 06:00:00 TS 21.7000 -37.6000 30 hurdat_atl main 2124 2124 O_____________ hurdat_atl AL121967 21.7000 -37.6000 TD 30 -1 12 332
1967248N15340 1967 90 NA NA CHLOE 1967-09-08 09:00:00 TS 22.1998 -37.8379 main 2142 2142 P_____________ AL121967 22.1998 -37.8379 TD 32 -1 11 340
1967248N15340 1967 90 NA NA CHLOE 1967-09-08 12:00:00 TS 22.7000 -38.0000 35 hurdat_atl main 2161 2160 O_____________ hurdat_atl AL121967 22.7000 -38.0000 TS 35 0 10 344
1967248N15340 1967 90 NA NA CHLOE 1967-09-08 15:00:00 TS 23.1924 -38.1429 main 2170 2170 P_____________ AL121967 23.1924 -38.1429 TS 37 0 10 344
1967248N15340 1967 90 NA NA CHLOE 1967-09-08 18:00:00 TS 23.7000 -38.3000 40 hurdat_atl main 2191 2191 O_____________ hurdat_atl AL121967 23.7000 -38.3000 TS 40 0 11 341
1967248N15340 1967 90 NA NA CHLOE 1967-09-08 21:00:00 TS 24.2501 -38.5498 main 2202 2202 P_____________ AL121967 24.2501 -38.5498 TS 42 0 12 337
1967248N15340 1967 90 NA NA CHLOE 1967-09-09 00:00:00 TS 24.8000 -38.8000 45 hurdat_atl main 2216 2212 O_____________ hurdat_atl AL121967 24.8000 -38.8000 TS 45 0 12 341
1967248N15340 1967 90 NA NA CHLOE 1967-09-09 03:00:00 TS 25.3449 -38.9652 main 2222 2215 P_____________ AL121967 25.3449 -38.9652 TS 52 0 10 345
1967248N15340 1967 90 NA NA CHLOE 1967-09-09 06:00:00 TS 25.8000 -39.1000 60 hurdat_atl main 2220 2217 O_____________ hurdat_atl AL121967 25.8000 -39.1000 TS 60 0 8 341
1967248N15340 1967 90 NA NA CHLOE 1967-09-09 09:00:00 TS 26.0950 -39.2576 main 2233 2230 P_____________ AL121967 26.0950 -39.2576 TS 62 0 6 332
1967248N15340 1967 90 NA NA CHLOE 1967-09-09 12:00:00 TS 26.3000 -39.4000 65 hurdat_atl main 2238 2234 O_____________ hurdat_atl AL121967 26.3000 -39.4000 HU 65 1 5 338
1967248N15340 1967 90 NA NA CHLOE 1967-09-09 15:00:00 TS 26.5448 -39.4625 main 2244 2240 P_____________ AL121967 26.5448 -39.4625 HU 70 1 4 336
1967248N15340 1967 90 NA NA CHLOE 1967-09-09 18:00:00 TS 26.7000 -39.6000 75 997 hurdat_atl main 2250 2250 O_____________ hurdat_atl AL121967 26.7000 -39.6000 HU 75 997 1 5 289
1967248N15340 1967 90 NA NA CHLOE 1967-09-09 21:00:00 TS 26.6875 -39.9402 main 2279 2279 P_____________ AL121967 26.6875 -39.9402 HU 70 1 7 262
1967248N15340 1967 90 NA NA CHLOE 1967-09-10 00:00:00 TS 26.6000 -40.4000 65 hurdat_atl main 2330 2330 O_____________ hurdat_atl AL121967 26.6000 -40.4000 HU 65 1 8 261
1967248N15340 1967 90 NA NA CHLOE 1967-09-10 03:00:00 TS 26.5497 -40.8625 main 2381 2381 P_____________ AL121967 26.5497 -40.8625 HU 67 1 9 264
1967248N15340 1967 90 NA NA CHLOE 1967-09-10 06:00:00 TS 26.5000 -41.4000 70 hurdat_atl main 2430 2430 O_____________ hurdat_atl AL121967 26.5000 -41.4000 HU 70 1 11 265
1967248N15340 1967 90 NA NA CHLOE 1967-09-10 09:00:00 TS 26.4501 -42.0350 main 2445 2432 P_____________ AL121967 26.4501 -42.0350 HU 70 1 12 265
1967248N15340 1967 90 NA NA CHLOE 1967-09-10 12:00:00 TS 26.4000 -42.7000 70 hurdat_atl main 2432 2412 O_____________ hurdat_atl AL121967 26.4000 -42.7000 HU 70 1 12 265
1967248N15340 1967 90 NA NA CHLOE 1967-09-10 15:00:00 TS 26.3497 -43.3149 main 2423 2394 P_____________ AL121967 26.3497 -43.3149 HU 70 1 11 265
1967248N15340 1967 90 NA NA CHLOE 1967-09-10 18:00:00 TS 26.3000 -43.9000 70 998 hurdat_atl main 2394 2347 O_____________ hurdat_atl AL121967 26.3000 -43.9000 HU 70 998 1 10 264
1967248N15340 1967 90 NA NA CHLOE 1967-09-10 21:00:00 TS 26.2496 -44.4499 main 2344 2287 P_____________ AL121967 26.2496 -44.4499 HU 70 1 10 264
1967248N15340 1967 90 NA NA CHLOE 1967-09-11 00:00:00 TS 26.2000 -45.0000 70 hurdat_atl main 2287 2230 O_____________ hurdat_atl AL121967 26.2000 -45.0000 HU 70 1 10 264
1967248N15340 1967 90 NA NA CHLOE 1967-09-11 03:00:00 TS 26.1499 -45.6000 main 2226 2170 P_____________ AL121967 26.1499 -45.6000 HU 72 1 11 265
1967248N15340 1967 90 NA NA CHLOE 1967-09-11 06:00:00 TS 26.1000 -46.2000 75 hurdat_atl main 2170 2119 O_____________ hurdat_atl AL121967 26.1000 -46.2000 HU 75 1 10 263
1967248N15340 1967 90 NA NA CHLOE 1967-09-11 09:00:00 TS 26.0269 -46.7353 main 2119 2063 P_____________ AL121967 26.0269 -46.7353 HU 77 1 10 264
1967248N15340 1967 90 NA NA CHLOE 1967-09-11 12:00:00 TS 26.0000 -47.3000 80 hurdat_atl main 2063 2002 O_____________ hurdat_atl AL121967 26.0000 -47.3000 HU 80 1 12 272
1967248N15340 1967 90 NA NA CHLOE 1967-09-11 15:00:00 TS 26.0707 -48.0371 main 2002 1941 P_____________ AL121967 26.0707 -48.0371 HU 82 1 13 279
1967248N15340 1967 90 NA NA CHLOE 1967-09-11 18:00:00 TS 26.2000 -48.7000 85 987 hurdat_atl main 1941 1909 O_____________ hurdat_atl AL121967 26.2000 -48.7000 HU 85 987 2 10 286
1967248N15340 1967 90 NA NA CHLOE 1967-09-11 21:00:00 TS 26.3420 -49.0751 main 1909 1901 P_____________ AL121967 26.3420 -49.0751 HU 85 2 6 299
1967248N15340 1967 90 NA NA CHLOE 1967-09-12 00:00:00 TS 26.5000 -49.3000 85 hurdat_atl main 1901 1887 O_____________ hurdat_atl AL121967 26.5000 -49.3000 HU 85 2 5 307
1967248N15340 1967 90 NA NA CHLOE 1967-09-12 03:00:00 TS 26.6349 -49.5077 main 1887 1879 P_____________ AL121967 26.6349 -49.5077 HU 85 2 5 310
1967248N15340 1967 90 NA NA CHLOE 1967-09-12 06:00:00 TS 26.8000 -49.7000 85 hurdat_atl main 1879 1872 O_____________ hurdat_atl AL121967 26.8000 -49.7000 HU 85 2 6 316
1967248N15340 1967 90 NA NA CHLOE 1967-09-12 09:00:00 TS 27.0425 -49.9424 main 1872 1862 P_____________ AL121967 27.0425 -49.9424 HU 87 2 7 318
1967248N15340 1967 90 NA NA CHLOE 1967-09-12 12:00:00 TS 27.3000 -50.2000 90 hurdat_atl main 1862 1847 O_____________ hurdat_atl AL121967 27.3000 -50.2000 HU 90 2 7 316
1967248N15340 1967 90 NA NA CHLOE 1967-09-12 15:00:00 TS 27.5225 -50.4725 main 1847 1841 P_____________ AL121967 27.5225 -50.4725 HU 90 2 6 312
1967248N15340 1967 90 NA NA CHLOE 1967-09-12 18:00:00 TS 27.7000 -50.7000 90 964 hurdat_atl main 1841 1833 O_____________ hurdat_atl AL121967 27.7000 -50.7000 HU 90 964 2 4 313
1967248N15340 1967 90 NA NA CHLOE 1967-09-12 21:00:00 TS 27.8074 -50.8152 main 1839 1831 P_____________ AL121967 27.8074 -50.8152 HU 92 2 3 318
1967248N15340 1967 90 NA NA CHLOE 1967-09-13 00:00:00 TS 27.9000 -50.9000 95 hurdat_atl main 1836 1834 O_____________ hurdat_atl AL121967 27.9000 -50.9000 HU 95 2 3 320
1967248N15340 1967 90 NA NA CHLOE 1967-09-13 03:00:00 TS 28.0500 -51.0425 main 1840 1830 P_____________ AL121967 28.0500 -51.0425 HU 95 2 4 319
1967248N15340 1967 90 NA NA CHLOE 1967-09-13 06:00:00 TS 28.2000 -51.2000 95 hurdat_atl main 1830 1822 O_____________ hurdat_atl AL121967 28.2000 -51.2000 HU 95 2 4 312
1967248N15340 1967 90 NA NA CHLOE 1967-09-13 09:00:00 TS 28.2925 -51.3427 main 1828 1818 P_____________ AL121967 28.2925 -51.3427 HU 95 2 3 307
1967248N15340 1967 90 NA NA CHLOE 1967-09-13 12:00:00 TS 28.4000 -51.5000 95 hurdat_atl main 1818 1810 O_____________ hurdat_atl AL121967 28.4000 -51.5000 HU 95 2 4 315
1967248N15340 1967 90 NA NA CHLOE 1967-09-13 15:00:00 TS 28.6000 -51.6999 main 1815 1813 P_____________ AL121967 28.6000 -51.6999 HU 95 2 5 319
1967248N15340 1967 90 NA NA CHLOE 1967-09-13 18:00:00 TS 28.8000 -51.9000 95 958 hurdat_atl main 1813 1805 O_____________ hurdat_atl AL121967 28.8000 -51.9000 HU 95 958 2 4 314
1967248N15340 1967 90 NA NA CHLOE 1967-09-13 21:00:00 TS 28.8999 -52.0502 main 1804 1803 P_____________ AL121967 28.8999 -52.0502 HU 95 2 3 307
1967248N15340 1967 90 NA NA CHLOE 1967-09-14 00:00:00 TS 29.0000 -52.2000 95 hurdat_atl main 1803 1795 O_____________ hurdat_atl AL121967 29.0000 -52.2000 HU 95 2 4 314
1967248N15340 1967 90 NA NA CHLOE 1967-09-14 03:00:00 TS 29.1699 -52.3702 main 1802 1801 P_____________ AL121967 29.1699 -52.3702 HU 95 2 5 319
1967248N15340 1967 90 NA NA CHLOE 1967-09-14 06:00:00 TS 29.4000 -52.6000 95 hurdat_atl main 1801 1794 O_____________ hurdat_atl AL121967 29.4000 -52.6000 HU 95 2 7 316
1967248N15340 1967 90 NA NA CHLOE 1967-09-14 09:00:00 TS 29.6700 -52.9202 main 1801 1794 P_____________ AL121967 29.6700 -52.9202 HU 92 2 9 315
1967248N15340 1967 90 NA NA CHLOE 1967-09-14 12:00:00 TS 30.0000 -53.3000 90 hurdat_atl main 1795 1769 O_____________ hurdat_atl AL121967 30.0000 -53.3000 HU 90 2 10 317
1967248N15340 1967 90 NA NA CHLOE 1967-09-14 15:00:00 TS 30.3775 -53.6927 main 1769 1714 P_____________ AL121967 30.3775 -53.6927 HU 90 2 11 319
1967248N15340 1967 90 NA NA CHLOE 1967-09-14 18:00:00 TS 30.8000 -54.1000 90 962 hurdat_atl main 1714 1660 O_____________ hurdat_atl AL121967 30.8000 -54.1000 HU 90 962 2 11 322
1967248N15340 1967 90 NA NA CHLOE 1967-09-14 21:00:00 TS 31.2423 -54.4929 main 1660 1595 P_____________ AL121967 31.2423 -54.4929 HU 87 2 11 323
1967248N15340 1967 90 NA NA CHLOE 1967-09-15 00:00:00 TS 31.7000 -54.9000 85 hurdat_atl main 1595 1539 O_____________ hurdat_atl AL121967 31.7000 -54.9000 HU 85 2 12 321
1967248N15340 1967 90 NA NA CHLOE 1967-09-15 03:00:00 TS 32.1500 -55.3502 main 1525 1467 P_____________ AL121967 32.1500 -55.3502 HU 82 1 12 320
1967248N15340 1967 90 NA NA CHLOE 1967-09-15 06:00:00 TS 32.6000 -55.8000 80 hurdat_atl main 1467 1410 O_____________ hurdat_atl AL121967 32.6000 -55.8000 HU 80 1 12 321
1967248N15340 1967 90 NA NA CHLOE 1967-09-15 09:00:00 TS 33.0424 -56.2229 main 1410 1343 P_____________ AL121967 33.0424 -56.2229 HU 80 1 11 323
1967248N15340 1967 90 NA NA CHLOE 1967-09-15 12:00:00 TS 33.5000 -56.6000 80 hurdat_atl main 1343 1281 O_____________ hurdat_atl AL121967 33.5000 -56.6000 HU 80 1 11 328
1967248N15340 1967 90 NA NA CHLOE 1967-09-15 15:00:00 TS 33.9849 -56.9303 main 1281 1219 P_____________ AL121967 33.9849 -56.9303 HU 80 1 11 334
1967248N15340 1967 90 NA NA CHLOE 1967-09-15 18:00:00 TS 34.5000 -57.2000 80 973 hurdat_atl main 1219 1162 O_____________ hurdat_atl AL121967 34.5000 -57.2000 HU 80 973 1 11 339
1967248N15340 1967 90 NA NA CHLOE 1967-09-15 21:00:00 TS 35.0424 -57.4302 main 1162 1097 P_____________ AL121967 35.0424 -57.4302 HU 80 1 12 343
1967248N15340 1967 90 NA NA CHLOE 1967-09-16 00:00:00 TS 35.6000 -57.6000 80 hurdat_atl main 1097 1046 O_____________ hurdat_atl AL121967 35.6000 -57.6000 HU 80 1 11 348
1967248N15340 1967 90 NA NA CHLOE 1967-09-16 03:00:00 TS 36.1500 -57.7301 main 1046 983 P_____________ AL121967 36.1500 -57.7301 HU 80 1 11 352
1967248N15340 1967 90 NA NA CHLOE 1967-09-16 06:00:00 TS 36.7000 -57.8000 80 hurdat_atl main 983 931 O_____________ hurdat_atl AL121967 36.7000 -57.8000 HU 80 1 11 356
1967248N15340 1967 90 NA NA CHLOE 1967-09-16 09:00:00 TS 37.2500 -57.8153 main 931 867 P_____________ AL121967 37.2500 -57.8153 HU 80 1 11 0
1967248N15340 1967 90 NA NA CHLOE 1967-09-16 12:00:00 TS 37.8000 -57.8000 80 hurdat_atl main 867 811 O_____________ hurdat_atl AL121967 37.8000 -57.8000 HU 80 1 11 358
1967248N15340 1967 90 NA NA CHLOE 1967-09-16 15:00:00 TS 38.3497 -57.8659 main 811 751 P_____________ AL121967 38.3497 -57.8659 HU 80 1 11 0
1967248N15340 1967 90 NA NA CHLOE 1967-09-16 18:00:00 TS 38.9000 -57.8000 80 970 hurdat_atl main 751 705 O_____________ hurdat_atl AL121967 38.9000 -57.8000 HU 80 970 1 12 15
1967248N15340 1967 90 NA NA CHLOE 1967-09-16 21:00:00 TS 39.4718 -57.4850 main 698 671 P_____________ AL121967 39.4718 -57.4850 HU 80 1 13 32
1967248N15340 1967 90 NA NA CHLOE 1967-09-17 00:00:00 TS 40.0000 -56.9000 80 hurdat_atl main 671 660 O_____________ hurdat_atl AL121967 40.0000 -56.9000 HU 80 1 14 48
1967248N15340 1967 90 NA NA CHLOE 1967-09-17 03:00:00 TS 40.4375 -56.0898 main 670 657 P_____________ AL121967 40.4375 -56.0898 HU 80 1 16 60
1967248N15340 1967 90 NA NA CHLOE 1967-09-17 06:00:00 TS 40.8000 -55.1000 80 hurdat_atl main 655 612 O_____________ hurdat_atl AL121967 40.8000 -55.1000 HU 80 1 17 66
1967248N15340 1967 90 NA NA CHLOE 1967-09-17 09:00:00 TS 41.1217 -54.0864 main 612 578 P_____________ AL121967 41.1217 -54.0864 HU 80 1 17 69
1967248N15340 1967 90 NA NA CHLOE 1967-09-17 12:00:00 TS 41.4000 -53.0000 80 hurdat_atl main 578 560 O_____________ hurdat_atl AL121967 41.4000 -53.0000 HU 80 1 17 72
1967248N15340 1967 90 NA NA CHLOE 1967-09-17 15:00:00 TS 41.6628 -51.9088 main 554 550 P_____________ AL121967 41.6628 -51.9088 HU 80 1 18 74
1967248N15340 1967 90 NA NA CHLOE 1967-09-17 18:00:00 TS 41.9000 -50.7000 80 967 hurdat_atl main 558 558 O_____________ hurdat_atl AL121967 41.9000 -50.7000 HU 80 967 1 20 77
1967248N15340 1967 90 NA NA CHLOE 1967-09-17 21:00:00 TS 42.1070 -49.3014 main 587 587 P_____________ AL121967 42.1070 -49.3014 HU 80 1 22 79
1967248N15340 1967 90 NA NA CHLOE 1967-09-18 00:00:00 TS 42.3000 -47.8000 80 hurdat_atl main 640 640 O_____________ hurdat_atl AL121967 42.3000 -47.8000 HU 80 1 22 80
1967248N15340 1967 90 NA NA CHLOE 1967-09-18 03:00:00 TS 42.5058 -46.3071 main 709 709 P_____________ AL121967 42.5058 -46.3071 HU 77 1 22 80
1967248N15340 1967 90 NA NA CHLOE 1967-09-18 06:00:00 TS 42.7000 -44.8000 75 hurdat_atl main 789 789 O_____________ hurdat_atl AL121967 42.7000 -44.8000 HU 75 1 22 81
1967248N15340 1967 90 NA NA CHLOE 1967-09-18 09:00:00 TS 42.8471 -43.3204 main 881 881 P_____________ AL121967 42.8471 -43.3204 HU 75 1 22 82
1967248N15340 1967 90 NA NA CHLOE 1967-09-18 12:00:00 TS 43.0000 -41.8000 75 hurdat_atl main 973 973 O_____________ hurdat_atl AL121967 43.0000 -41.8000 HU 75 1 23 82
1967248N15340 1967 90 NA NA CHLOE 1967-09-18 15:00:00 TS 43.1755 -40.1856 main 1075 1075 P_____________ AL121967 43.1755 -40.1856 HU 75 1 24 81
1967248N15340 1967 90 NA NA CHLOE 1967-09-18 18:00:00 TS 43.4000 -38.5000 75 969 hurdat_atl main 1184 1184 O_____________ hurdat_atl AL121967 43.4000 -38.5000 HU 75 969 1 25 78
1967248N15340 1967 90 NA NA CHLOE 1967-09-18 21:00:00 TS 43.6905 -36.7653 main 1292 1292 P_____________ AL121967 43.6905 -36.7653 HU 75 1 26 77
1967248N15340 1967 90 NA NA CHLOE 1967-09-19 00:00:00 TS 44.0000 -35.0000 75 hurdat_atl main 1411 1411 O_____________ hurdat_atl AL121967 44.0000 -35.0000 HU 75 1 26 77
1967248N15340 1967 90 NA NA CHLOE 1967-09-19 03:00:00 TS 44.2623 -33.2485 main 1532 1532 P_____________ AL121967 44.2623 -33.2485 HU 75 1 25 79
1967248N15340 1967 90 NA NA CHLOE 1967-09-19 06:00:00 TS 44.5000 -31.5000 75 hurdat_atl main 1651 1625 O_____________ hurdat_atl AL121967 44.5000 -31.5000 HU 75 1 25 79
1967248N15340 1967 90 NA NA CHLOE 1967-09-19 09:00:00 TS 44.7432 -29.7292 main 1619 1504 P_____________ AL121967 44.7432 -29.7292 HU 75 1 25 81
1967248N15340 1967 90 NA NA CHLOE 1967-09-19 12:00:00 TS 44.9000 -28.0000 75 hurdat_atl main 1498 1385 O_____________ hurdat_atl AL121967 44.9000 -28.0000 HU 75 1 24 86
1967248N15340 1967 90 NA NA CHLOE 1967-09-19 15:00:00 TS 44.8914 -26.3827 main 1377 1259 P_____________ AL121967 44.8914 -26.3827 HU 75 1 23 93
1967248N15340 1967 90 NA NA CHLOE 1967-09-19 18:00:00 TS 44.8000 -24.8000 75 hurdat_atl main 1251 1132 O_____________ hurdat_atl AL121967 44.8000 -24.8000 HU 75 1 23 94
1967248N15340 1967 90 NA NA CHLOE 1967-09-19 21:00:00 TS 44.7126 -23.1655 main 1124 998 P_____________ AL121967 44.7126 -23.1655 HU 72 1 23 95
1967248N15340 1967 90 NA NA CHLOE 1967-09-20 00:00:00 TS 44.6000 -21.5000 70 hurdat_atl main 990 863 O_____________ hurdat_atl AL121967 44.6000 -21.5000 HU 70 1 24 96
1967248N15340 1967 90 NA NA CHLOE 1967-09-20 03:00:00 TS 44.4563 -19.7850 main 856 727 P_____________ AL121967 44.4563 -19.7850 HU 70 1 24 97
1967248N15340 1967 90 NA NA CHLOE 1967-09-20 06:00:00 TS 44.3000 -18.1000 70 hurdat_atl main 719 598 O_____________ hurdat_atl AL121967 44.3000 -18.1000 HU 70 1 23 98
1967248N15340 1967 90 NA NA CHLOE 1967-09-20 09:00:00 TS 44.1092 -16.5331 main 590 479 P_____________ AL121967 44.1092 -16.5331 HU 65 1 22 98
1967248N15340 1967 90 NA NA CHLOE 1967-09-20 12:00:00 TS 44.0000 -15.0000 60 hurdat_atl main 471 358 O_____________ hurdat_atl AL121967 44.0000 -15.0000 TS 60 0 22 91
1967248N15340 1967 90 NA NA CHLOE 1967-09-20 15:00:00 TS 44.0678 -13.4180 main 351 247 P_____________ AL121967 44.0678 -13.4180 TS 57 0 23 85
1967248N15340 1967 90 NA NA CHLOE 1967-09-20 18:00:00 TS 44.2000 -11.8000 55 hurdat_atl main 240 150 O_____________ hurdat_atl AL121967 44.2000 -11.8000 TS 55 0 23 86
1967248N15340 1967 90 NA NA CHLOE 1967-09-20 21:00:00 TS 44.2401 -10.1628 main 146 77 P_____________ AL121967 44.2401 -10.1628 TS 50 0 24 88
1967248N15340 1967 90 NA NA CHLOE 1967-09-21 00:00:00 TS 44.3000 -8.50000 45 992 hurdat_atl main 73 66 O_____________ hurdat_atl AL121967 44.3000 -8.50000 TS 45 992 0 24 85
1967248N15340 1967 90 NA NA CHLOE 1967-09-21 03:00:00 TS 44.4407 -6.80116 main 94 94 P_____________ AL121967 44.4407 -6.80116 TS 42 0 24 83
1967248N15340 1967 90 NA NA CHLOE 1967-09-21 06:00:00 TS 44.6000 -5.10000 40 hurdat_atl main 124 124 O_____________ hurdat_atl AL121967 44.6000 -5.10000 TS 40 0 24 84
1967248N15340 1967 90 NA NA CHLOE 1967-09-21 09:00:00 TS 44.6973 -3.44064 main 144 52 P_____________ AL121967 44.6973 -3.44064 TS 40 0 23 85
1967248N15340 1967 90 NA NA CHLOE 1967-09-21 12:00:00 ET 44.8000 -1.80000 40 hurdat_atl main 45 0 O_____________ hurdat_atl AL121967 44.8000 -1.80000 EX 40 -4 23 84
1967248N15340 1967 90 NA NA CHLOE 1967-09-21 15:00:00 ET 44.9424 -0.155284 main 0 0 P_____________ AL121967 44.9424 -0.155284 EX 37 -4 23 83
1967248N15340 1967 90 NA NA CHLOE 1967-09-21 18:00:00 ET 45.1000 1.50000 35 996 hurdat_atl main 0 O_____________ hurdat_atl AL121967 45.1000 1.50000 EX 35 996 -4 24 82

IBTrACS Databaseについて

本データベースは、米国NOAAが公開する1842年以降の世界の熱帯低気圧のベストトラックデータアーカイブInternational Best Track Archive for Climate Stewardship (IBTrACS)を、ウェブで閲覧しやすい形式に変換したものです。

最終更新日:2021-12-01